Flight Track Log - Related Links

Times and Time Zones

All times are in EDT time to prevent confusion due to time zone crossing. See the ASQ6029 flight status page for this flight to view local times or setup timezone preferences in your user account.

Time Position Orientation Groundspeed Altitude Reporting Facility
EDT Latitude Longitude Course Direction KTS MPH feet Rate Location/Type
Mon 01:47:00 PM 35.5749 -101.8490 336° Northwest  Level FlightAware Approximate
Mon 01:47:01 PM 35.3994 -101.7375 338° Northwest 261 300 10,200  Level Albuquerque Center
Mon 01:48:00 PM 35.6638 -101.8984 336° Northwest  Level FlightAware Approximate
Mon 01:48:03 PM 35.4950 -101.7836 339° North 300 345 11,800  Level Albuquerque Center
Mon 01:49:00 PM 35.7579 -101.9304 345° North  Level FlightAware Approximate
Mon 01:49:05 PM 35.5847 -101.8261 339° North 334 384 13,500  Level Albuquerque Center
Mon 01:50:00 PM 35.8487 -101.9743 338° Northwest  Level FlightAware Approximate
Mon 01:50:07 PM 35.6756 -101.8700 339° North 347 399 15,200  Level Albuquerque Center
Mon 01:51:00 PM 35.9361 -102.0255 340° North  Level FlightAware Approximate
Mon 01:51:09 PM 35.7683 -101.9133 339° North 355 409 16,900  Level Albuquerque Center
Mon 01:52:11 PM 35.8622 -101.9592 338° Northwest 360 414 18,300 1,452 Climbing Albuquerque Center
Mon 01:53:13 PM 35.9569 -102.0061 338° Northwest 365 420 19,900 1,742 Climbing Albuquerque Center
Mon 01:54:15 PM 36.0739 -102.0622 339° North 373 429 21,900 1,935 Climbing Albuquerque Center
Mon 01:55:17 PM 36.1683 -102.1089 338° Northwest 368 423 23,900 1,887 Climbing Albuquerque Center
Mon 01:56:19 PM 36.2600 -102.1542 338° Northwest 359 413 25,800 1,645 Climbing Albuquerque Center
Mon 01:57:21 PM 36.3522 -102.1983 339° North 355 409 27,300 1,463 Climbing Albuquerque Center
Mon 01:58:22 PM 36.4458 -102.2444 338° Northwest 360 414 28,800 1,268 Climbing Albuquerque Center
Mon 01:59:24 PM 36.5417 -102.2922 338° Northwest 368 423 29,900 581 Climbing Albuquerque Center
Mon 02:00:26 PM 36.6422 -102.3408 339° North 382 440 30,000 48 Climbing Albuquerque Center
Mon 02:01:28 PM 36.7750 -102.4067 338° Northwest 424 488 30,000  Level Albuquerque Center
Mon 02:02:30 PM 36.8847 -102.4619 338° Northwest 430 495 30,000  Level Albuquerque Center
Mon 02:03:32 PM 37.0044 -102.5208 339° North 432 497 30,000  Level Albuquerque Center
Mon 02:04:33 PM 37.1086 -102.5739 338° Northwest 426 490 30,000  Level Albuquerque Center
Mon 02:05:35 PM 37.2317 -102.6353 338° Northwest 426 490 30,000  Level Albuquerque Center
Mon 02:06:37 PM 37.3372 -102.6883 338° Northwest 427 491 30,000  Level Albuquerque Center
Mon 02:07:39 PM 37.4600 -102.7503 338° Northwest 427 491 30,000  Level Albuquerque Center
Mon 02:07:58 PM 37.4767 -102.7583 339° North 426 490 30,000  Level Denver Center
Mon 02:09:00 PM 37.6033 -102.8058 343° North 426 490 30,000  Level Denver Center
Mon 02:10:02 PM 37.7158 -102.8422 346° North 434 499 30,000  Level Denver Center
Mon 02:11:04 PM 37.8428 -102.8928 343° North 433 498 30,000  Level Denver Center
Mon 02:12:06 PM 37.9375 -102.9686 328° Northwest 418 481 30,000  Level Denver Center
Mon 02:13:08 PM 38.0386 -103.0564 326° Northwest 421 484 30,000  Level Denver Center
Mon 02:14:10 PM 38.1375 -103.1394 327° Northwest 416 479 30,000  Level Denver Center
Mon 02:15:12 PM 38.2442 -103.2328 326° Northwest 417 480 30,000  Level Denver Center
Mon 02:16:14 PM 38.3456 -103.3197 326° Northwest 416 479 30,000  Level Denver Center
Mon 02:17:16 PM 38.4369 -103.3989 326° Northwest 414 476 30,000  Level Denver Center
Mon 02:18:18 PM 38.5331 -103.4825 326° Northwest 414 476 30,000  Level Denver Center
Mon 02:19:21 PM 38.6386 -103.5747 326° Northwest 414 476 30,000  Level Denver Center
Mon 02:20:23 PM 38.7294 -103.6544 326° Northwest 414 476 30,000 -629 Level Denver Center
Mon 02:21:25 PM 38.8342 -103.7469 325° Northwest 410 472 28,700 -1,548 Descending Denver Center
Mon 02:22:27 PM 38.9361 -103.8183 331° Northwest 433 498 26,800 -1,694 Descending Denver Center
Mon 02:23:29 PM 39.0550 -103.8492 349° North 437 503 25,200 -1,790 Descending Denver Center
Mon 02:24:31 PM 39.1644 -103.8786 348° North 409 471 23,100 -2,226 Descending Denver Center
Mon 02:25:33 PM 39.2869 -103.9103 349° North 375 432 20,600 -2,032 Descending Denver Center
Mon 02:26:35 PM 39.3578 -103.9711 326° Northwest 340 391 18,900 -1,597 Descending Denver Center
Mon 02:27:37 PM 39.4008 -104.0803 297° West 324 373 17,300 -1,645 Descending Denver Center
Mon 02:28:39 PM 39.4400 -104.1739 298° West 286 329 15,500 -1,790 Descending Denver Center
Mon 02:29:41 PM 39.4828 -104.2756 299° West 297 342 13,600 -1,789 Descending Denver Center
Mon 02:31:20 PM 39.5500 -104.4333 299° West 307 353 10,700 -1,742 Descending Denver TRACON
Mon 02:31:45 PM 39.5653 -104.4761 295° West 304 350 10,000 -1,636 Descending Denver Center
Mon 02:32:48 PM 39.6228 -104.5514 315° West 303 349 8,300 -1,248 Descending Denver Center
Mon 02:33:50 PM 39.6872 -104.6078 326° Northwest 263 303 7,400 -871 Descending Denver Center

Login

Don't have an account? Register now (free) for customized features, flight alerts, and more!